createdAt,value
2022-07-25T00:00:22.157Z,60.37
2022-07-25T00:05:27.824Z,59.90
2022-07-25T00:10:32.001Z,60.20
2022-07-25T00:15:36.159Z,59.93
2022-07-25T00:20:41.602Z,59.95
2022-07-25T00:25:44.976Z,60.35
2022-07-25T00:30:49.171Z,60.61
2022-07-25T00:35:54.432Z,58.87
2022-07-25T00:40:58.482Z,60.78
2022-07-25T00:46:03.001Z,60.96
2022-07-25T00:51:09.006Z,61.25
2022-07-25T00:56:13.150Z,61.53
2022-07-25T01:01:17.203Z,61.41
2022-07-25T01:06:24.856Z,61.56
2022-07-25T01:11:29.342Z,61.60
2022-07-25T01:16:33.373Z,60.56
2022-07-25T01:21:41.588Z,61.01
2022-07-25T01:26:45.039Z,61.37
2022-07-25T01:31:49.257Z,61.90
2022-07-25T01:36:54.781Z,62.41
2022-07-25T01:41:58.895Z,62.99
2022-07-25T01:47:02.850Z,62.78
2022-07-25T01:52:08.670Z,62.85
2022-07-25T01:57:13.007Z,62.33
2022-07-25T02:02:17.081Z,61.01
2022-07-25T02:07:22.543Z,61.97
2022-07-25T02:12:25.928Z,62.08
2022-07-25T02:17:30.892Z,62.08
2022-07-25T02:22:35.834Z,62.15
2022-07-25T02:27:40.127Z,61.66
2022-07-25T02:32:43.444Z,61.28
2022-07-25T02:37:49.062Z,61.12
2022-07-25T02:42:52.403Z,61.23
2022-07-25T02:47:56.467Z,61.09
2022-07-25T02:53:01.205Z,59.83
2022-07-25T02:58:05.306Z,60.81
2022-07-25T03:03:08.674Z,60.55
2022-07-25T03:08:14.274Z,59.77
2022-07-25T03:13:17.649Z,59.19
2022-07-25T03:18:21.701Z,59.06
2022-07-25T03:23:27.430Z,58.43
2022-07-25T03:28:31.763Z,56.13
2022-07-25T03:33:35.123Z,53.37
2022-07-25T03:38:40.644Z,53.09
2022-07-25T03:43:44.449Z,53.76
2022-07-25T03:48:48.678Z,53.81
2022-07-25T03:54:06.979Z,51.09
2022-07-25T03:59:13.507Z,48.33
2022-07-25T04:04:17.295Z,44.66
2022-07-25T04:09:22.998Z,37.28
2022-07-25T04:14:26.493Z,32.73
2022-07-25T04:19:30.573Z,30.09
2022-07-25T04:24:35.365Z,27.95
2022-07-25T04:29:39.923Z,25.84
2022-07-25T04:34:43.791Z,24.81
2022-07-25T04:39:49.410Z,23.42
2022-07-25T04:44:52.742Z,22.09
2022-07-25T04:49:57.497Z,20.86
2022-07-25T04:55:02.331Z,20.07
2022-07-25T05:00:10.256Z,20.46
2022-07-25T05:05:21.629Z,21.25
2022-07-25T05:10:28.372Z,23.99
2022-07-25T05:15:32.843Z,25.73
2022-07-25T05:20:36.208Z,25.97
2022-07-25T05:25:40.941Z,25.69
2022-07-25T05:30:44.346Z,21.93
2022-07-25T05:35:47.933Z,18.85
2022-07-25T05:40:53.312Z,16.91
2022-07-25T05:46:02.137Z,19.19
2022-07-25T05:51:05.471Z,21.50
2022-07-25T05:56:10.539Z,22.96
2022-07-25T06:01:14.974Z,24.56
2022-07-25T06:06:18.829Z,22.72
2022-07-25T06:11:23.538Z,18.83
2022-07-25T06:16:29.363Z,16.87
2022-07-25T06:21:32.879Z,16.00
2022-07-25T06:26:39.989Z,18.02
2022-07-25T06:31:47.284Z,20.63
2022-07-25T06:36:50.867Z,24.53
2022-07-25T06:41:56.014Z,25.13
2022-07-25T06:46:59.517Z,24.70
2022-07-25T06:52:03.526Z,24.72
2022-07-25T06:57:09.118Z,22.96
2022-07-25T07:02:12.824Z,22.72
2022-07-25T07:07:16.691Z,20.02
2022-07-25T07:12:21.408Z,22.69
2022-07-25T07:17:24.735Z,23.28
2022-07-25T07:22:28.114Z,22.51
2022-07-25T07:27:32.836Z,20.55
2022-07-25T07:32:36.239Z,19.80
2022-07-25T07:37:43.396Z,16.43
2022-07-25T07:42:50.311Z,15.07
2022-07-25T07:47:55.094Z,15.34
2022-07-25T07:52:59.517Z,14.87
2022-07-25T07:58:04.451Z,15.00
2022-07-25T08:03:08.950Z,18.22
2022-07-25T08:08:13.861Z,21.29
2022-07-25T08:13:20.642Z,25.51
2022-07-25T08:18:23.970Z,27.88
2022-07-25T08:23:28.954Z,29.72
2022-07-25T08:28:33.745Z,31.75
2022-07-25T08:33:37.151Z,32.64
2022-07-25T08:38:40.576Z,33.13
2022-07-25T08:43:48.676Z,31.29
2022-07-25T08:48:53.320Z,29.08
2022-07-25T08:53:57.368Z,28.80
2022-07-25T08:59:02.215Z,29.37
2022-07-25T09:04:05.799Z,29.94
2022-07-25T09:09:09.360Z,29.48
2022-07-25T09:14:15.351Z,30.53
2022-07-25T09:19:21.228Z,30.38
2022-07-25T09:24:24.754Z,32.26
2022-07-25T09:29:31.503Z,30.96
2022-07-25T09:34:39.173Z,31.59
2022-07-25T09:39:46.917Z,31.73
2022-07-25T09:45:04.169Z,30.81
2022-07-25T09:50:09.465Z,30.33
2022-07-25T09:55:14.262Z,30.61
2022-07-25T10:00:23.450Z,31.08
2022-07-25T10:05:36.299Z,30.14
2022-07-25T10:10:41.800Z,30.06
2022-07-25T10:15:49.789Z,29.54
2022-07-25T10:20:54.939Z,30.32
2022-07-25T10:26:08.578Z,31.13
2022-07-25T10:31:26.942Z,30.41
2022-07-25T10:36:43.857Z,30.35
2022-07-25T10:41:53.373Z,31.18
2022-07-25T10:47:08.641Z,31.26
2022-07-25T10:52:17.587Z,31.15
2022-07-25T10:57:20.908Z,31.66
2022-07-25T11:02:25.798Z,31.62
2022-07-25T11:07:36.095Z,32.40
2022-07-25T11:12:40.848Z,32.64
2022-07-25T11:17:52.515Z,32.16
2022-07-25T11:22:57.175Z,32.31
2022-07-25T11:28:02.204Z,32.67
2022-07-25T11:33:06.965Z,32.26
2022-07-25T11:38:15.655Z,32.69
2022-07-25T11:43:22.645Z,32.36
2022-07-25T11:48:37.051Z,32.93
2022-07-25T11:53:42.202Z,32.34
2022-07-25T11:58:51.851Z,32.50
2022-07-25T12:03:56.569Z,31.90
2022-07-25T12:09:00.716Z,31.95
2022-07-25T12:14:05.730Z,32.54
2022-07-25T12:19:21.490Z,32.39
2022-07-25T12:24:24.823Z,32.15
2022-07-25T12:29:28.208Z,33.02
2022-07-25T12:34:34.597Z,32.91
2022-07-25T12:39:38.008Z,33.32
2022-07-25T12:44:41.545Z,33.80
2022-07-25T12:49:46.340Z,34.18
2022-07-25T12:54:49.756Z,34.31
2022-07-25T12:59:54.199Z,35.24
2022-07-25T13:04:58.897Z,34.78
2022-07-25T13:10:03.766Z,34.36
2022-07-25T13:15:08.286Z,33.85
2022-07-25T13:20:13.778Z,34.44
2022-07-25T13:25:17.212Z,35.31
2022-07-25T13:30:20.546Z,35.36
2022-07-25T13:35:33.746Z,35.42
2022-07-25T13:40:42.113Z,35.76
2022-07-25T13:45:45.559Z,34.65
2022-07-25T13:50:50.357Z,34.70
2022-07-25T13:55:53.888Z,35.06
2022-07-25T14:00:57.291Z,33.95
2022-07-25T14:06:02.123Z,34.31
2022-07-25T14:11:06.188Z,34.50
2022-07-25T14:16:09.643Z,34.38
2022-07-25T14:21:14.646Z,35.27
2022-07-25T14:26:18.024Z,34.06
2022-07-25T14:31:21.726Z,34.71
2022-07-25T14:36:26.520Z,35.04
2022-07-25T14:41:29.928Z,34.97
2022-07-25T14:46:33.443Z,35.49
2022-07-25T14:51:38.304Z,36.24
2022-07-25T14:56:41.864Z,35.97
2022-07-25T15:01:45.225Z,38.26
2022-07-25T15:06:49.932Z,38.01
2022-07-25T15:11:53.312Z,39.62
2022-07-25T15:16:56.812Z,38.99
2022-07-25T15:22:02.241Z,40.74
2022-07-25T15:27:05.640Z,41.82
2022-07-25T15:32:09.606Z,41.45
2022-07-25T15:37:14.468Z,41.90
2022-07-25T15:42:18.256Z,42.08
2022-07-25T15:47:21.472Z,41.37
2022-07-25T15:52:26.764Z,41.95
2022-07-25T15:57:30.194Z,42.14
2022-07-25T16:02:33.711Z,42.51
2022-07-25T16:07:38.257Z,41.67
2022-07-25T16:12:41.829Z,42.40
2022-07-25T16:17:45.155Z,42.19
2022-07-25T16:22:51.507Z,42.15
2022-07-25T16:27:55.185Z,42.59
2022-07-25T16:32:58.702Z,42.40
2022-07-25T16:38:03.387Z,41.51
2022-07-25T16:43:07.062Z,42.06
2022-07-25T16:48:10.311Z,41.42
2022-07-25T16:53:15.331Z,42.23
2022-07-25T16:58:19.373Z,42.77
2022-07-25T17:03:23.007Z,42.71
2022-07-25T17:08:27.874Z,43.45
2022-07-25T17:13:31.646Z,43.55
2022-07-25T17:18:35.065Z,44.13
2022-07-25T17:23:40.101Z,44.59
2022-07-25T17:28:43.628Z,44.79
2022-07-25T17:33:47.082Z,45.24
2022-07-25T17:38:51.908Z,45.19
2022-07-25T17:43:55.452Z,46.12
2022-07-25T17:48:59.230Z,46.60
2022-07-25T17:54:04.509Z,46.77
2022-07-25T17:59:08.695Z,48.01
2022-07-25T18:04:12.086Z,48.41
2022-07-25T18:09:17.181Z,48.42
2022-07-25T18:14:20.629Z,49.45
2022-07-25T18:19:25.268Z,49.84
2022-07-25T18:24:30.872Z,50.90
2022-07-25T18:29:37.277Z,52.36
2022-07-25T18:34:40.726Z,53.56
2022-07-25T18:39:45.697Z,55.36
2022-07-25T18:44:49.267Z,55.34
2022-07-25T18:49:53.781Z,55.37
2022-07-25T18:54:59.008Z,55.75
2022-07-25T19:00:03.436Z,55.42
2022-07-25T19:05:09.562Z,55.39
2022-07-25T19:10:14.616Z,55.56
2022-07-25T19:15:17.928Z,55.99
2022-07-25T19:20:21.331Z,56.15
2022-07-25T19:25:26.258Z,56.27
2022-07-25T19:30:30.492Z,56.43
2022-07-25T19:35:36.303Z,56.68
2022-07-25T19:40:41.156Z,56.92
2022-07-25T19:45:44.691Z,57.14
2022-07-25T19:50:48.470Z,57.28
2022-07-25T19:55:53.334Z,57.74
2022-07-25T20:00:56.703Z,57.94
2022-07-25T20:06:03.423Z,57.66
2022-07-25T20:11:11.835Z,57.72
2022-07-25T20:16:15.263Z,57.87
2022-07-25T20:21:18.623Z,57.77
2022-07-25T20:26:23.413Z,57.82
2022-07-25T20:31:26.883Z,58.23
2022-07-25T20:36:30.238Z,58.25
2022-07-25T20:41:34.971Z,58.57
2022-07-25T20:46:39.202Z,58.83
2022-07-25T20:51:42.637Z,59.13
2022-07-25T20:56:47.466Z,59.01
2022-07-25T21:01:51.002Z,59.31
2022-07-25T21:06:56.621Z,59.41
2022-07-25T21:12:02.501Z,59.25
2022-07-25T21:17:06.125Z,59.38
2022-07-25T21:22:09.761Z,59.50
2022-07-25T21:27:15.076Z,59.72
2022-07-25T21:32:21.465Z,60.04
2022-07-25T21:37:25.047Z,60.41
2022-07-25T21:42:29.880Z,60.88
2022-07-25T21:47:33.314Z,61.21
2022-07-25T21:52:36.910Z,61.63
2022-07-25T21:57:43.270Z,61.84
2022-07-25T22:02:48.789Z,61.93
2022-07-25T22:07:52.499Z,62.29
2022-07-25T22:12:57.299Z,62.29
2022-07-25T22:18:00.639Z,62.04
2022-07-25T22:23:04.571Z,62.01
2022-07-25T22:28:14.167Z,62.29
2022-07-25T22:33:17.919Z,62.37
2022-07-25T22:38:21.261Z,62.76
2022-07-25T22:43:56.500Z,62.54
2022-07-25T22:48:49.370Z,62.69
2022-07-25T22:53:52.751Z,62.77
2022-07-25T22:58:57.779Z,63.15
2022-07-25T23:04:01.193Z,63.65
2022-07-25T23:09:05.994Z,63.66
2022-07-25T23:14:10.936Z,63.97
2022-07-25T23:19:14.302Z,64.03
2022-07-25T23:24:17.624Z,64.16
2022-07-25T23:29:22.375Z,64.39
2022-07-25T23:34:25.716Z,65.01
2022-07-25T23:39:29.443Z,65.09
2022-07-25T23:44:34.164Z,64.82
2022-07-25T23:49:39.915Z,65.35
2022-07-25T23:54:43.314Z,65.77
2022-07-25T23:59:48.939Z,65.63
